sensor_id;sensor_type;location;lat;lon;timestamp;P1;durP1;ratioP1;P2;durP2;ratioP2
19883;SDS011;10104;50.732;10.174;2024-01-27T00:00:40;3.17;;;1.30;;
19883;SDS011;10104;50.732;10.174;2024-01-27T00:03:21;3.93;;;1.47;;
19883;SDS011;10104;50.732;10.174;2024-01-27T00:06:01;4.70;;;1.33;;
19883;SDS011;10104;50.732;10.174;2024-01-27T00:08:42;7.63;;;1.27;;
19883;SDS011;10104;50.732;10.174;2024-01-27T00:11:22;4.77;;;1.43;;
19883;SDS011;10104;50.732;10.174;2024-01-27T00:14:06;7.30;;;1.63;;
19883;SDS011;10104;50.732;10.174;2024-01-27T00:16:46;8.87;;;2.30;;
19883;SDS011;10104;50.732;10.174;2024-01-27T00:19:27;6.37;;;2.20;;
19883;SDS011;10104;50.732;10.174;2024-01-27T00:22:07;7.40;;;1.90;;
19883;SDS011;10104;50.732;10.174;2024-01-27T00:24:48;10.17;;;2.43;;
19883;SDS011;10104;50.732;10.174;2024-01-27T00:27:28;4.60;;;1.60;;
19883;SDS011;10104;50.732;10.174;2024-01-27T00:30:08;5.87;;;1.80;;
19883;SDS011;10104;50.732;10.174;2024-01-27T00:32:49;8.20;;;1.50;;
19883;SDS011;10104;50.732;10.174;2024-01-27T00:35:29;4.03;;;1.27;;
19883;SDS011;10104;50.732;10.174;2024-01-27T00:38:09;8.13;;;1.43;;
19883;SDS011;10104;50.732;10.174;2024-01-27T00:40:49;6.77;;;1.70;;
19883;SDS011;10104;50.732;10.174;2024-01-27T00:43:30;6.80;;;2.07;;
19883;SDS011;10104;50.732;10.174;2024-01-27T00:46:10;8.83;;;1.77;;
19883;SDS011;10104;50.732;10.174;2024-01-27T00:48:50;6.67;;;1.70;;
19883;SDS011;10104;50.732;10.174;2024-01-27T00:51:32;11.43;;;2.43;;
19883;SDS011;10104;50.732;10.174;2024-01-27T00:54:12;7.67;;;1.70;;
19883;SDS011;10104;50.732;10.174;2024-01-27T00:56:52;7.23;;;1.80;;
19883;SDS011;10104;50.732;10.174;2024-01-27T00:59:32;9.67;;;1.70;;
19883;SDS011;10104;50.732;10.174;2024-01-27T01:02:13;4.80;;;1.33;;
19883;SDS011;10104;50.732;10.174;2024-01-27T01:04:53;6.67;;;1.50;;
19883;SDS011;10104;50.732;10.174;2024-01-27T01:07:33;7.23;;;1.70;;
19883;SDS011;10104;50.732;10.174;2024-01-27T01:10:13;7.80;;;2.23;;
19883;SDS011;10104;50.732;10.174;2024-01-27T01:12:53;13.33;;;1.77;;
19883;SDS011;10104;50.732;10.174;2024-01-27T01:15:34;2.97;;;1.33;;
19883;SDS011;10104;50.732;10.174;2024-01-27T01:18:14;3.23;;;1.40;;
19883;SDS011;10104;50.732;10.174;2024-01-27T01:20:54;5.03;;;1.60;;
19883;SDS011;10104;50.732;10.174;2024-01-27T01:23:35;5.53;;;2.00;;
19883;SDS011;10104;50.732;10.174;2024-01-27T01:26:15;8.00;;;2.30;;
19883;SDS011;10104;50.732;10.174;2024-01-27T01:28:56;9.50;;;2.03;;
19883;SDS011;10104;50.732;10.174;2024-01-27T01:31:36;6.07;;;1.70;;
19883;SDS011;10104;50.732;10.174;2024-01-27T01:34:17;5.73;;;2.07;;
19883;SDS011;10104;50.732;10.174;2024-01-27T01:36:57;10.57;;;2.73;;
19883;SDS011;10104;50.732;10.174;2024-01-27T01:39:37;6.07;;;2.07;;
19883;SDS011;10104;50.732;10.174;2024-01-27T01:42:17;5.67;;;2.33;;
19883;SDS011;10104;50.732;10.174;2024-01-27T01:44:58;4.53;;;1.83;;
19883;SDS011;10104;50.732;10.174;2024-01-27T01:47:38;11.13;;;2.20;;
19883;SDS011;10104;50.732;10.174;2024-01-27T01:50:19;5.80;;;2.30;;
19883;SDS011;10104;50.732;10.174;2024-01-27T01:53:00;5.57;;;2.10;;
19883;SDS011;10104;50.732;10.174;2024-01-27T01:55:41;16.53;;;2.20;;
19883;SDS011;10104;50.732;10.174;2024-01-27T01:58:21;9.97;;;2.43;;
19883;SDS011;10104;50.732;10.174;2024-01-27T02:01:01;8.53;;;2.17;;
19883;SDS011;10104;50.732;10.174;2024-01-27T02:03:51;8.80;;;2.03;;
19883;SDS011;10104;50.732;10.174;2024-01-27T02:06:32;6.20;;;1.93;;
19883;SDS011;10104;50.732;10.174;2024-01-27T02:09:12;7.10;;;2.20;;
19883;SDS011;10104;50.732;10.174;2024-01-27T02:11:52;11.03;;;2.33;;
19883;SDS011;10104;50.732;10.174;2024-01-27T02:14:33;10.30;;;2.10;;
19883;SDS011;10104;50.732;10.174;2024-01-27T02:17:13;9.87;;;2.10;;
19883;SDS011;10104;50.732;10.174;2024-01-27T02:19:53;9.83;;;2.17;;
19883;SDS011;10104;50.732;10.174;2024-01-27T02:22:33;14.73;;;2.30;;
19883;SDS011;10104;50.732;10.174;2024-01-27T02:25:14;10.10;;;2.10;;
19883;SDS011;10104;50.732;10.174;2024-01-27T02:27:55;5.73;;;2.07;;
19883;SDS011;10104;50.732;10.174;2024-01-27T02:30:35;10.47;;;2.40;;
19883;SDS011;10104;50.732;10.174;2024-01-27T02:33:15;6.07;;;2.00;;
19883;SDS011;10104;50.732;10.174;2024-01-27T02:35:56;5.27;;;1.67;;
19883;SDS011;10104;50.732;10.174;2024-01-27T02:38:36;14.00;;;2.30;;
19883;SDS011;10104;50.732;10.174;2024-01-27T02:41:16;5.93;;;1.70;;
19883;SDS011;10104;50.732;10.174;2024-01-27T02:43:56;8.30;;;2.30;;
19883;SDS011;10104;50.732;10.174;2024-01-27T02:46:36;7.50;;;2.00;;
19883;SDS011;10104;50.732;10.174;2024-01-27T02:49:17;14.43;;;2.87;;
19883;SDS011;10104;50.732;10.174;2024-01-27T02:51:57;8.00;;;2.27;;
19883;SDS011;10104;50.732;10.174;2024-01-27T02:54:37;9.00;;;3.13;;
19883;SDS011;10104;50.732;10.174;2024-01-27T02:57:18;10.10;;;2.77;;
19883;SDS011;10104;50.732;10.174;2024-01-27T02:59:59;11.07;;;2.80;;
19883;SDS011;10104;50.732;10.174;2024-01-27T03:02:40;8.97;;;2.60;;
19883;SDS011;10104;50.732;10.174;2024-01-27T03:05:20;9.93;;;2.53;;
19883;SDS011;10104;50.732;10.174;2024-01-27T03:08:00;6.40;;;1.93;;
19883;SDS011;10104;50.732;10.174;2024-01-27T03:10:40;13.13;;;2.33;;
19883;SDS011;10104;50.732;10.174;2024-01-27T03:13:20;9.63;;;2.63;;
19883;SDS011;10104;50.732;10.174;2024-01-27T03:16:01;9.73;;;2.50;;
19883;SDS011;10104;50.732;10.174;2024-01-27T03:18:41;14.63;;;2.27;;
19883;SDS011;10104;50.732;10.174;2024-01-27T03:21:22;9.60;;;2.30;;
19883;SDS011;10104;50.732;10.174;2024-01-27T03:24:02;11.93;;;2.40;;
19883;SDS011;10104;50.732;10.174;2024-01-27T03:26:43;7.27;;;2.77;;
19883;SDS011;10104;50.732;10.174;2024-01-27T03:29:23;8.07;;;2.57;;
19883;SDS011;10104;50.732;10.174;2024-01-27T03:32:03;8.53;;;2.33;;
19883;SDS011;10104;50.732;10.174;2024-01-27T03:34:44;9.73;;;3.13;;
19883;SDS011;10104;50.732;10.174;2024-01-27T03:37:27;9.97;;;2.57;;
19883;SDS011;10104;50.732;10.174;2024-01-27T03:40:08;12.03;;;2.20;;
19883;SDS011;10104;50.732;10.174;2024-01-27T03:42:49;8.43;;;2.57;;
19883;SDS011;10104;50.732;10.174;2024-01-27T03:45:29;10.30;;;2.47;;
19883;SDS011;10104;50.732;10.174;2024-01-27T03:48:09;11.70;;;2.63;;
19883;SDS011;10104;50.732;10.174;2024-01-27T03:50:50;8.13;;;2.77;;
19883;SDS011;10104;50.732;10.174;2024-01-27T03:53:30;4.73;;;2.43;;
19883;SDS011;10104;50.732;10.174;2024-01-27T03:56:13;9.27;;;2.60;;
19883;SDS011;10104;50.732;10.174;2024-01-27T03:58:53;22.20;;;3.40;;
19883;SDS011;10104;50.732;10.174;2024-01-27T04:01:34;8.33;;;2.47;;
19883;SDS011;10104;50.732;10.174;2024-01-27T04:04:15;16.37;;;3.07;;
19883;SDS011;10104;50.732;10.174;2024-01-27T04:06:55;9.10;;;2.43;;
19883;SDS011;10104;50.732;10.174;2024-01-27T04:09:35;10.87;;;3.37;;
19883;SDS011;10104;50.732;10.174;2024-01-27T04:12:15;10.73;;;2.73;;
19883;SDS011;10104;50.732;10.174;2024-01-27T04:14:56;11.23;;;2.70;;
19883;SDS011;10104;50.732;10.174;2024-01-27T04:17:38;9.27;;;2.67;;
19883;SDS011;10104;50.732;10.174;2024-01-27T04:20:18;6.97;;;2.20;;
19883;SDS011;10104;50.732;10.174;2024-01-27T04:22:58;6.53;;;2.17;;
19883;SDS011;10104;50.732;10.174;2024-01-27T04:25:38;10.03;;;3.30;;
19883;SDS011;10104;50.732;10.174;2024-01-27T04:28:18;10.00;;;3.50;;
19883;SDS011;10104;50.732;10.174;2024-01-27T04:30:58;10.47;;;2.73;;
19883;SDS011;10104;50.732;10.174;2024-01-27T04:33:39;12.63;;;3.20;;
19883;SDS011;10104;50.732;10.174;2024-01-27T04:36:26;12.30;;;3.20;;
19883;SDS011;10104;50.732;10.174;2024-01-27T04:39:09;8.13;;;2.93;;
19883;SDS011;10104;50.732;10.174;2024-01-27T04:41:50;14.33;;;3.03;;
19883;SDS011;10104;50.732;10.174;2024-01-27T04:44:31;15.47;;;2.77;;
19883;SDS011;10104;50.732;10.174;2024-01-27T04:47:11;10.03;;;3.27;;
19883;SDS011;10104;50.732;10.174;2024-01-27T04:49:51;10.27;;;2.63;;
19883;SDS011;10104;50.732;10.174;2024-01-27T04:52:31;9.63;;;3.17;;
19883;SDS011;10104;50.732;10.174;2024-01-27T04:55:11;6.37;;;2.87;;
19883;SDS011;10104;50.732;10.174;2024-01-27T04:57:51;9.00;;;2.70;;
19883;SDS011;10104;50.732;10.174;2024-01-27T05:00:31;4.50;;;2.10;;
19883;SDS011;10104;50.732;10.174;2024-01-27T05:03:12;7.47;;;2.27;;
19883;SDS011;10104;50.732;10.174;2024-01-27T05:05:54;12.77;;;2.83;;
19883;SDS011;10104;50.732;10.174;2024-01-27T05:08:35;10.60;;;2.80;;
19883;SDS011;10104;50.732;10.174;2024-01-27T05:11:15;9.17;;;2.10;;
19883;SDS011;10104;50.732;10.174;2024-01-27T05:13:58;6.33;;;2.97;;
19883;SDS011;10104;50.732;10.174;2024-01-27T05:16:38;11.90;;;2.60;;
19883;SDS011;10104;50.732;10.174;2024-01-27T05:19:18;6.97;;;2.10;;
19883;SDS011;10104;50.732;10.174;2024-01-27T05:21:59;10.93;;;2.57;;
19883;SDS011;10104;50.732;10.174;2024-01-27T05:24:39;9.07;;;2.67;;
19883;SDS011;10104;50.732;10.174;2024-01-27T05:27:20;11.17;;;4.17;;
19883;SDS011;10104;50.732;10.174;2024-01-27T05:30:00;10.77;;;3.63;;
19883;SDS011;10104;50.732;10.174;2024-01-27T05:32:41;19.73;;;8.90;;
19883;SDS011;10104;50.732;10.174;2024-01-27T05:35:21;15.73;;;5.30;;
19883;SDS011;10104;50.732;10.174;2024-01-27T05:38:01;12.17;;;3.40;;
19883;SDS011;10104;50.732;10.174;2024-01-27T05:40:42;14.43;;;3.13;;
19883;SDS011;10104;50.732;10.174;2024-01-27T05:43:22;9.30;;;2.97;;
19883;SDS011;10104;50.732;10.174;2024-01-27T05:46:03;12.63;;;2.47;;
19883;SDS011;10104;50.732;10.174;2024-01-27T05:48:43;7.07;;;2.87;;
19883;SDS011;10104;50.732;10.174;2024-01-27T05:51:23;11.33;;;3.43;;
19883;SDS011;10104;50.732;10.174;2024-01-27T05:54:03;10.60;;;3.33;;
19883;SDS011;10104;50.732;10.174;2024-01-27T05:56:47;8.37;;;3.33;;
19883;SDS011;10104;50.732;10.174;2024-01-27T05:59:27;10.63;;;3.30;;
19883;SDS011;10104;50.732;10.174;2024-01-27T06:02:07;15.37;;;3.93;;
19883;SDS011;10104;50.732;10.174;2024-01-27T06:04:48;10.87;;;2.87;;
19883;SDS011;10104;50.732;10.174;2024-01-27T06:07:28;14.33;;;3.27;;
19883;SDS011;10104;50.732;10.174;2024-01-27T06:10:09;7.07;;;2.80;;
19883;SDS011;10104;50.732;10.174;2024-01-27T06:12:49;13.03;;;2.50;;
19883;SDS011;10104;50.732;10.174;2024-01-27T06:15:30;7.60;;;2.93;;
19883;SDS011;10104;50.732;10.174;2024-01-27T06:18:11;10.30;;;3.60;;
19883;SDS011;10104;50.732;10.174;2024-01-27T06:20:52;12.17;;;3.23;;
19883;SDS011;10104;50.732;10.174;2024-01-27T06:23:32;25.57;;;11.30;;
19883;SDS011;10104;50.732;10.174;2024-01-27T06:26:13;15.57;;;6.20;;
19883;SDS011;10104;50.732;10.174;2024-01-27T06:28:54;13.23;;;4.40;;
19883;SDS011;10104;50.732;10.174;2024-01-27T06:31:34;13.63;;;3.83;;
19883;SDS011;10104;50.732;10.174;2024-01-27T06:34:14;11.03;;;3.23;;
19883;SDS011;10104;50.732;10.174;2024-01-27T06:36:55;12.30;;;3.50;;
19883;SDS011;10104;50.732;10.174;2024-01-27T06:39:35;12.10;;;3.50;;
19883;SDS011;10104;50.732;10.174;2024-01-27T06:42:16;12.87;;;4.17;;
19883;SDS011;10104;50.732;10.174;2024-01-27T06:44:56;15.30;;;3.87;;
19883;SDS011;10104;50.732;10.174;2024-01-27T06:47:37;9.70;;;3.83;;
19883;SDS011;10104;50.732;10.174;2024-01-27T06:50:17;15.57;;;5.10;;
19883;SDS011;10104;50.732;10.174;2024-01-27T06:52:57;8.37;;;3.83;;
19883;SDS011;10104;50.732;10.174;2024-01-27T06:55:37;13.20;;;5.00;;
19883;SDS011;10104;50.732;10.174;2024-01-27T06:58:22;15.07;;;4.53;;
19883;SDS011;10104;50.732;10.174;2024-01-27T07:01:03;8.27;;;4.03;;
19883;SDS011;10104;50.732;10.174;2024-01-27T07:03:43;14.60;;;5.23;;
19883;SDS011;10104;50.732;10.174;2024-01-27T07:06:25;14.57;;;4.53;;
19883;SDS011;10104;50.732;10.174;2024-01-27T07:09:05;9.60;;;4.33;;
19883;SDS011;10104;50.732;10.174;2024-01-27T07:11:47;14.13;;;4.70;;
19883;SDS011;10104;50.732;10.174;2024-01-27T07:14:27;10.43;;;4.53;;
19883;SDS011;10104;50.732;10.174;2024-01-27T07:17:07;15.67;;;4.67;;
19883;SDS011;10104;50.732;10.174;2024-01-27T07:19:47;14.00;;;5.00;;
19883;SDS011;10104;50.732;10.174;2024-01-27T07:22:28;16.17;;;6.50;;
19883;SDS011;10104;50.732;10.174;2024-01-27T07:25:08;19.13;;;6.30;;
19883;SDS011;10104;50.732;10.174;2024-01-27T07:27:50;15.07;;;5.83;;
19883;SDS011;10104;50.732;10.174;2024-01-27T07:30:30;12.70;;;5.23;;
19883;SDS011;10104;50.732;10.174;2024-01-27T07:33:11;12.67;;;5.23;;
19883;SDS011;10104;50.732;10.174;2024-01-27T07:35:51;14.07;;;5.63;;
19883;SDS011;10104;50.732;10.174;2024-01-27T07:38:32;13.50;;;4.80;;
19883;SDS011;10104;50.732;10.174;2024-01-27T07:41:12;20.43;;;8.23;;
19883;SDS011;10104;50.732;10.174;2024-01-27T07:43:54;15.33;;;5.50;;
19883;SDS011;10104;50.732;10.174;2024-01-27T07:46:34;20.90;;;7.90;;
19883;SDS011;10104;50.732;10.174;2024-01-27T07:49:14;17.00;;;6.43;;
19883;SDS011;10104;50.732;10.174;2024-01-27T07:51:55;19.00;;;4.70;;
19883;SDS011;10104;50.732;10.174;2024-01-27T07:54:35;15.67;;;4.37;;
19883;SDS011;10104;50.732;10.174;2024-01-27T07:57:19;9.30;;;3.63;;
19883;SDS011;10104;50.732;10.174;2024-01-27T07:59:59;9.87;;;3.70;;
19883;SDS011;10104;50.732;10.174;2024-01-27T08:02:39;11.37;;;3.33;;
19883;SDS011;10104;50.732;10.174;2024-01-27T08:05:20;11.83;;;3.37;;
19883;SDS011;10104;50.732;10.174;2024-01-27T08:08:01;14.93;;;4.87;;
19883;SDS011;10104;50.732;10.174;2024-01-27T08:10:41;22.23;;;8.37;;
19883;SDS011;10104;50.732;10.174;2024-01-27T08:13:21;22.87;;;9.43;;
19883;SDS011;10104;50.732;10.174;2024-01-27T08:16:02;13.87;;;5.50;;
19883;SDS011;10104;50.732;10.174;2024-01-27T08:18:42;22.67;;;7.80;;
19883;SDS011;10104;50.732;10.174;2024-01-27T08:21:24;27.63;;;8.80;;
19883;SDS011;10104;50.732;10.174;2024-01-27T08:24:04;22.57;;;10.10;;
19883;SDS011;10104;50.732;10.174;2024-01-27T08:26:45;56.10;;;25.90;;
19883;SDS011;10104;50.732;10.174;2024-01-27T08:29:26;39.10;;;19.00;;
19883;SDS011;10104;50.732;10.174;2024-01-27T08:32:07;28.47;;;12.50;;
19883;SDS011;10104;50.732;10.174;2024-01-27T08:34:47;29.60;;;12.37;;
19883;SDS011;10104;50.732;10.174;2024-01-27T08:37:28;26.93;;;9.30;;
19883;SDS011;10104;50.732;10.174;2024-01-27T08:40:08;25.30;;;7.40;;
19883;SDS011;10104;50.732;10.174;2024-01-27T08:42:48;20.17;;;7.13;;
19883;SDS011;10104;50.732;10.174;2024-01-27T08:45:28;19.67;;;8.00;;
19883;SDS011;10104;50.732;10.174;2024-01-27T08:48:09;28.37;;;7.97;;
19883;SDS011;10104;50.732;10.174;2024-01-27T08:50:51;14.97;;;7.03;;
19883;SDS011;10104;50.732;10.174;2024-01-27T08:53:31;21.40;;;7.43;;
19883;SDS011;10104;50.732;10.174;2024-01-27T08:56:12;15.53;;;5.53;;
19883;SDS011;10104;50.732;10.174;2024-01-27T08:58:53;16.53;;;5.70;;
19883;SDS011;10104;50.732;10.174;2024-01-27T09:01:34;12.70;;;4.60;;
19883;SDS011;10104;50.732;10.174;2024-01-27T09:04:14;9.40;;;3.90;;
19883;SDS011;10104;50.732;10.174;2024-01-27T09:06:55;12.60;;;3.73;;
19883;SDS011;10104;50.732;10.174;2024-01-27T09:09:35;12.63;;;3.37;;
19883;SDS011;10104;50.732;10.174;2024-01-27T09:12:18;14.90;;;3.73;;
19883;SDS011;10104;50.732;10.174;2024-01-27T09:14:58;13.40;;;4.10;;
19883;SDS011;10104;50.732;10.174;2024-01-27T09:17:38;20.13;;;3.60;;
19883;SDS011;10104;50.732;10.174;2024-01-27T09:20:20;13.73;;;4.13;;
19883;SDS011;10104;50.732;10.174;2024-01-27T09:23:00;15.83;;;3.40;;
19883;SDS011;10104;50.732;10.174;2024-01-27T09:25:41;18.60;;;4.50;;
19883;SDS011;10104;50.732;10.174;2024-01-27T09:28:21;12.10;;;3.73;;
19883;SDS011;10104;50.732;10.174;2024-01-27T09:31:01;12.20;;;3.10;;
19883;SDS011;10104;50.732;10.174;2024-01-27T09:33:41;8.93;;;2.77;;
19883;SDS011;10104;50.732;10.174;2024-01-27T09:36:22;17.37;;;4.50;;
19883;SDS011;10104;50.732;10.174;2024-01-27T09:39:03;22.83;;;4.03;;
19883;SDS011;10104;50.732;10.174;2024-01-27T09:41:44;15.33;;;3.97;;
19883;SDS011;10104;50.732;10.174;2024-01-27T09:44:25;10.93;;;3.40;;
19883;SDS011;10104;50.732;10.174;2024-01-27T09:47:06;15.33;;;3.60;;
19883;SDS011;10104;50.732;10.174;2024-01-27T09:49:46;12.10;;;3.23;;
19883;SDS011;10104;50.732;10.174;2024-01-27T09:52:29;14.70;;;3.73;;
19883;SDS011;10104;50.732;10.174;2024-01-27T09:55:09;20.70;;;3.77;;
19883;SDS011;10104;50.732;10.174;2024-01-27T09:57:49;13.27;;;3.87;;
19883;SDS011;10104;50.732;10.174;2024-01-27T10:00:33;12.10;;;5.13;;
19883;SDS011;10104;50.732;10.174;2024-01-27T10:03:15;11.80;;;3.03;;
19883;SDS011;10104;50.732;10.174;2024-01-27T10:05:57;11.17;;;3.53;;
19883;SDS011;10104;50.732;10.174;2024-01-27T10:08:38;10.67;;;3.00;;
19883;SDS011;10104;50.732;10.174;2024-01-27T10:11:18;17.90;;;3.80;;
19883;SDS011;10104;50.732;10.174;2024-01-27T10:14:00;10.90;;;3.27;;
19883;SDS011;10104;50.732;10.174;2024-01-27T10:16:43;13.73;;;3.07;;
19883;SDS011;10104;50.732;10.174;2024-01-27T10:19:24;12.33;;;3.87;;
19883;SDS011;10104;50.732;10.174;2024-01-27T10:22:06;11.30;;;3.00;;
19883;SDS011;10104;50.732;10.174;2024-01-27T10:24:46;15.67;;;2.80;;
19883;SDS011;10104;50.732;10.174;2024-01-27T10:27:27;12.97;;;2.90;;
19883;SDS011;10104;50.732;10.174;2024-01-27T10:30:14;10.53;;;3.10;;
19883;SDS011;10104;50.732;10.174;2024-01-27T10:32:56;10.43;;;2.53;;
19883;SDS011;10104;50.732;10.174;2024-01-27T10:35:37;10.30;;;2.57;;
19883;SDS011;10104;50.732;10.174;2024-01-27T10:38:17;10.57;;;2.70;;
19883;SDS011;10104;50.732;10.174;2024-01-27T10:40:58;14.40;;;2.80;;
19883;SDS011;10104;50.732;10.174;2024-01-27T10:43:39;11.80;;;2.53;;
19883;SDS011;10104;50.732;10.174;2024-01-27T10:46:20;14.23;;;2.63;;
19883;SDS011;10104;50.732;10.174;2024-01-27T10:49:01;10.57;;;2.83;;
19883;SDS011;10104;50.732;10.174;2024-01-27T10:51:55;8.33;;;2.17;;
19883;SDS011;10104;50.732;10.174;2024-01-27T10:54:37;12.97;;;2.63;;
19883;SDS011;10104;50.732;10.174;2024-01-27T10:57:21;13.67;;;2.70;;
19883;SDS011;10104;50.732;10.174;2024-01-27T11:00:04;10.13;;;3.13;;
19883;SDS011;10104;50.732;10.174;2024-01-27T11:02:49;10.10;;;2.33;;
19883;SDS011;10104;50.732;10.174;2024-01-27T11:05:34;12.87;;;2.90;;
19883;SDS011;10104;50.732;10.174;2024-01-27T11:08:15;8.60;;;2.67;;
19883;SDS011;10104;50.732;10.174;2024-01-27T11:10:58;10.07;;;2.27;;
19883;SDS011;10104;50.732;10.174;2024-01-27T11:13:38;9.50;;;2.57;;
19883;SDS011;10104;50.732;10.174;2024-01-27T11:16:19;9.60;;;2.33;;
19883;SDS011;10104;50.732;10.174;2024-01-27T11:18:59;9.30;;;2.13;;
19883;SDS011;10104;50.732;10.174;2024-01-27T11:21:40;9.07;;;3.00;;
19883;SDS011;10104;50.732;10.174;2024-01-27T11:24:21;8.10;;;1.87;;
19883;SDS011;10104;50.732;10.174;2024-01-27T11:27:04;10.37;;;2.67;;
19883;SDS011;10104;50.732;10.174;2024-01-27T11:29:46;12.30;;;2.97;;
19883;SDS011;10104;50.732;10.174;2024-01-27T11:32:28;12.60;;;2.93;;
19883;SDS011;10104;50.732;10.174;2024-01-27T11:35:09;16.53;;;2.93;;
19883;SDS011;10104;50.732;10.174;2024-01-27T11:37:49;10.80;;;2.70;;
19883;SDS011;10104;50.732;10.174;2024-01-27T11:40:30;8.97;;;2.20;;
19883;SDS011;10104;50.732;10.174;2024-01-27T11:43:11;15.93;;;2.70;;
19883;SDS011;10104;50.732;10.174;2024-01-27T11:48:41;8.97;;;2.17;;
19883;SDS011;10104;50.732;10.174;2024-01-27T11:51:23;7.50;;;2.20;;
19883;SDS011;10104;50.732;10.174;2024-01-27T11:54:05;8.67;;;2.10;;
19883;SDS011;10104;50.732;10.174;2024-01-27T11:56:45;10.67;;;2.50;;
19883;SDS011;10104;50.732;10.174;2024-01-27T11:59:26;8.13;;;2.30;;
19883;SDS011;10104;50.732;10.174;2024-01-27T12:02:06;10.27;;;2.83;;
19883;SDS011;10104;50.732;10.174;2024-01-27T12:04:47;9.30;;;2.33;;
19883;SDS011;10104;50.732;10.174;2024-01-27T12:07:28;8.93;;;2.07;;
19883;SDS011;10104;50.732;10.174;2024-01-27T12:10:09;8.23;;;2.57;;
19883;SDS011;10104;50.732;10.174;2024-01-27T12:12:49;13.07;;;2.80;;
19883;SDS011;10104;50.732;10.174;2024-01-27T12:15:29;7.50;;;2.40;;
19883;SDS011;10104;50.732;10.174;2024-01-27T12:18:10;8.53;;;2.07;;
19883;SDS011;10104;50.732;10.174;2024-01-27T12:20:54;8.47;;;2.07;;
19883;SDS011;10104;50.732;10.174;2024-01-27T12:23:36;9.10;;;2.40;;
19883;SDS011;10104;50.732;10.174;2024-01-27T12:26:16;8.67;;;2.20;;
19883;SDS011;10104;50.732;10.174;2024-01-27T12:28:57;13.37;;;3.20;;
19883;SDS011;10104;50.732;10.174;2024-01-27T12:31:38;7.63;;;2.13;;
19883;SDS011;10104;50.732;10.174;2024-01-27T12:34:19;13.20;;;2.20;;
19883;SDS011;10104;50.732;10.174;2024-01-27T12:37:01;13.43;;;3.10;;
19883;SDS011;10104;50.732;10.174;2024-01-27T12:39:42;7.50;;;1.90;;
19883;SDS011;10104;50.732;10.174;2024-01-27T12:42:24;11.10;;;2.27;;
19883;SDS011;10104;50.732;10.174;2024-01-27T12:45:04;9.93;;;2.37;;
19883;SDS011;10104;50.732;10.174;2024-01-27T12:47:45;8.90;;;2.33;;
19883;SDS011;10104;50.732;10.174;2024-01-27T12:50:25;7.10;;;2.13;;
19883;SDS011;10104;50.732;10.174;2024-01-27T12:53:05;9.13;;;1.87;;
19883;SDS011;10104;50.732;10.174;2024-01-27T12:55:45;12.67;;;2.90;;
19883;SDS011;10104;50.732;10.174;2024-01-27T12:58:26;9.57;;;2.40;;
19883;SDS011;10104;50.732;10.174;2024-01-27T13:01:06;6.63;;;1.83;;
19883;SDS011;10104;50.732;10.174;2024-01-27T13:03:48;4.53;;;1.73;;
19883;SDS011;10104;50.732;10.174;2024-01-27T13:06:30;13.53;;;2.57;;
19883;SDS011;10104;50.732;10.174;2024-01-27T13:09:10;11.27;;;2.33;;
19883;SDS011;10104;50.732;10.174;2024-01-27T13:11:51;8.87;;;2.00;;
19883;SDS011;10104;50.732;10.174;2024-01-27T13:14:32;6.40;;;1.60;;
19883;SDS011;10104;50.732;10.174;2024-01-27T13:17:12;8.00;;;1.73;;
19883;SDS011;10104;50.732;10.174;2024-01-27T13:19:54;11.80;;;2.03;;
19883;SDS011;10104;50.732;10.174;2024-01-27T13:22:34;11.33;;;1.87;;
19883;SDS011;10104;50.732;10.174;2024-01-27T13:25:15;9.50;;;1.93;;
19883;SDS011;10104;50.732;10.174;2024-01-27T13:27:55;9.43;;;1.97;;
19883;SDS011;10104;50.732;10.174;2024-01-27T13:30:35;7.13;;;1.73;;
19883;SDS011;10104;50.732;10.174;2024-01-27T13:33:16;6.93;;;1.70;;
19883;SDS011;10104;50.732;10.174;2024-01-27T13:35:56;7.87;;;2.70;;
19883;SDS011;10104;50.732;10.174;2024-01-27T13:38:37;9.07;;;2.00;;
19883;SDS011;10104;50.732;10.174;2024-01-27T13:41:18;8.97;;;1.87;;
19883;SDS011;10104;50.732;10.174;2024-01-27T13:43:58;8.27;;;2.03;;
19883;SDS011;10104;50.732;10.174;2024-01-27T13:46:38;8.27;;;1.90;;
19883;SDS011;10104;50.732;10.174;2024-01-27T13:49:19;10.80;;;1.60;;
19883;SDS011;10104;50.732;10.174;2024-01-27T13:52:00;5.63;;;1.80;;
19883;SDS011;10104;50.732;10.174;2024-01-27T13:54:45;5.33;;;1.40;;
19883;SDS011;10104;50.732;10.174;2024-01-27T13:57:25;7.40;;;2.10;;
19883;SDS011;10104;50.732;10.174;2024-01-27T14:00:06;9.73;;;1.83;;
19883;SDS011;10104;50.732;10.174;2024-01-27T14:02:46;6.47;;;1.90;;
19883;SDS011;10104;50.732;10.174;2024-01-27T14:05:27;6.13;;;1.80;;
19883;SDS011;10104;50.732;10.174;2024-01-27T14:08:07;7.33;;;1.97;;
19883;SDS011;10104;50.732;10.174;2024-01-27T14:10:49;9.27;;;1.73;;
19883;SDS011;10104;50.732;10.174;2024-01-27T14:13:32;5.10;;;2.00;;
19883;SDS011;10104;50.732;10.174;2024-01-27T14:16:12;11.37;;;2.60;;
19883;SDS011;10104;50.732;10.174;2024-01-27T14:18:52;11.40;;;2.43;;
19883;SDS011;10104;50.732;10.174;2024-01-27T14:21:32;11.23;;;2.43;;
19883;SDS011;10104;50.732;10.174;2024-01-27T14:24:13;6.93;;;1.90;;
19883;SDS011;10104;50.732;10.174;2024-01-27T14:26:53;12.10;;;1.90;;
19883;SDS011;10104;50.732;10.174;2024-01-27T14:29:34;8.17;;;2.37;;
19883;SDS011;10104;50.732;10.174;2024-01-27T14:32:15;11.07;;;1.90;;
19883;SDS011;10104;50.732;10.174;2024-01-27T14:34:55;11.40;;;3.43;;
19883;SDS011;10104;50.732;10.174;2024-01-27T14:37:36;4.60;;;1.53;;
19883;SDS011;10104;50.732;10.174;2024-01-27T14:40:17;7.13;;;1.97;;
19883;SDS011;10104;50.732;10.174;2024-01-27T14:43:00;13.03;;;4.67;;
19883;SDS011;10104;50.732;10.174;2024-01-27T14:45:46;16.40;;;7.97;;
19883;SDS011;10104;50.732;10.174;2024-01-27T14:48:27;11.53;;;3.47;;
19883;SDS011;10104;50.732;10.174;2024-01-27T14:51:07;5.37;;;1.50;;
19883;SDS011;10104;50.732;10.174;2024-01-27T14:53:47;10.43;;;2.10;;
19883;SDS011;10104;50.732;10.174;2024-01-27T14:56:28;7.47;;;2.20;;
19883;SDS011;10104;50.732;10.174;2024-01-27T14:59:09;9.20;;;1.87;;
19883;SDS011;10104;50.732;10.174;2024-01-27T15:01:49;8.13;;;1.80;;
19883;SDS011;10104;50.732;10.174;2024-01-27T15:04:30;7.30;;;2.30;;
19883;SDS011;10104;50.732;10.174;2024-01-27T15:07:11;8.03;;;2.70;;
19883;SDS011;10104;50.732;10.174;2024-01-27T15:09:56;6.03;;;1.80;;
19883;SDS011;10104;50.732;10.174;2024-01-27T15:12:36;8.50;;;1.40;;
19883;SDS011;10104;50.732;10.174;2024-01-27T15:15:17;9.40;;;1.60;;
19883;SDS011;10104;50.732;10.174;2024-01-27T15:17:57;6.23;;;1.53;;
19883;SDS011;10104;50.732;10.174;2024-01-27T15:20:40;5.53;;;1.80;;
19883;SDS011;10104;50.732;10.174;2024-01-27T15:23:21;9.80;;;2.50;;
19883;SDS011;10104;50.732;10.174;2024-01-27T15:26:04;8.33;;;2.40;;
19883;SDS011;10104;50.732;10.174;2024-01-27T15:28:46;7.00;;;2.30;;
19883;SDS011;10104;50.732;10.174;2024-01-27T15:31:27;9.87;;;3.03;;
19883;SDS011;10104;50.732;10.174;2024-01-27T15:34:07;6.83;;;2.77;;
19883;SDS011;10104;50.732;10.174;2024-01-27T15:36:48;11.63;;;3.03;;
19883;SDS011;10104;50.732;10.174;2024-01-27T15:39:29;14.47;;;2.80;;
19883;SDS011;10104;50.732;10.174;2024-01-27T15:42:09;7.90;;;2.33;;
19883;SDS011;10104;50.732;10.174;2024-01-27T15:44:49;7.67;;;2.93;;
19883;SDS011;10104;50.732;10.174;2024-01-27T15:47:30;9.30;;;2.50;;
19883;SDS011;10104;50.732;10.174;2024-01-27T15:50:10;13.70;;;3.03;;